sensor_id;sensor_type;location;lat;lon;timestamp;P1;durP1;ratioP1;P2;durP2;ratioP2
40945;SDS011;55635;50.264;11.918;2024-02-26T00:00:32;15.73;;;9.20;;
40945;SDS011;55635;50.264;11.918;2024-02-26T00:03:14;13.52;;;8.48;;
40945;SDS011;55635;50.264;11.918;2024-02-26T00:05:56;13.38;;;7.80;;
40945;SDS011;55635;50.264;11.918;2024-02-26T00:08:37;12.88;;;7.90;;
40945;SDS011;55635;50.264;11.918;2024-02-26T00:11:18;14.48;;;8.48;;
40945;SDS011;55635;50.264;11.918;2024-02-26T00:13:59;14.30;;;8.25;;
40945;SDS011;55635;50.264;11.918;2024-02-26T00:16:40;13.02;;;7.82;;
40945;SDS011;55635;50.264;11.918;2024-02-26T00:19:21;14.63;;;8.30;;
40945;SDS011;55635;50.264;11.918;2024-02-26T00:22:02;13.75;;;8.25;;
40945;SDS011;55635;50.264;11.918;2024-02-26T00:24:43;14.02;;;8.00;;
40945;SDS011;55635;50.264;11.918;2024-02-26T00:27:24;17.08;;;10.05;;
40945;SDS011;55635;50.264;11.918;2024-02-26T00:30:06;17.17;;;10.50;;
40945;SDS011;55635;50.264;11.918;2024-02-26T00:32:47;17.33;;;10.25;;
40945;SDS011;55635;50.264;11.918;2024-02-26T00:35:28;16.60;;;9.70;;
40945;SDS011;55635;50.264;11.918;2024-02-26T00:38:09;20.25;;;11.07;;
40945;SDS011;55635;50.264;11.918;2024-02-26T00:40:50;18.25;;;10.25;;
40945;SDS011;55635;50.264;11.918;2024-02-26T00:43:31;19.85;;;11.82;;
40945;SDS011;55635;50.264;11.918;2024-02-26T00:46:12;17.08;;;9.73;;
40945;SDS011;55635;50.264;11.918;2024-02-26T00:48:53;18.40;;;10.70;;
40945;SDS011;55635;50.264;11.918;2024-02-26T00:51:34;17.60;;;10.07;;
40945;SDS011;55635;50.264;11.918;2024-02-26T00:54:15;15.82;;;10.05;;
40945;SDS011;55635;50.264;11.918;2024-02-26T00:56:56;23.58;;;12.02;;
40945;SDS011;55635;50.264;11.918;2024-02-26T00:59:37;18.95;;;10.63;;
40945;SDS011;55635;50.264;11.918;2024-02-26T01:02:18;19.00;;;10.43;;
40945;SDS011;55635;50.264;11.918;2024-02-26T01:04:59;23.00;;;11.32;;
40945;SDS011;55635;50.264;11.918;2024-02-26T01:07:40;21.15;;;11.50;;
40945;SDS011;55635;50.264;11.918;2024-02-26T01:10:21;18.70;;;10.70;;
40945;SDS011;55635;50.264;11.918;2024-02-26T01:13:02;18.67;;;10.27;;
40945;SDS011;55635;50.264;11.918;2024-02-26T01:15:44;16.13;;;9.65;;
40945;SDS011;55635;50.264;11.918;2024-02-26T01:18:24;16.90;;;9.25;;
40945;SDS011;55635;50.264;11.918;2024-02-26T01:21:05;18.48;;;10.07;;
40945;SDS011;55635;50.264;11.918;2024-02-26T01:23:49;14.98;;;9.15;;
40945;SDS011;55635;50.264;11.918;2024-02-26T01:26:29;16.52;;;8.80;;
40945;SDS011;55635;50.264;11.918;2024-02-26T01:29:11;15.07;;;7.55;;
40945;SDS011;55635;50.264;11.918;2024-02-26T01:31:52;15.27;;;8.60;;
40945;SDS011;55635;50.264;11.918;2024-02-26T01:34:33;13.48;;;8.10;;
40945;SDS011;55635;50.264;11.918;2024-02-26T01:37:14;14.57;;;8.73;;
40945;SDS011;55635;50.264;11.918;2024-02-26T01:39:55;13.75;;;7.80;;
40945;SDS011;55635;50.264;11.918;2024-02-26T01:42:39;19.25;;;9.20;;
40945;SDS011;55635;50.264;11.918;2024-02-26T01:45:21;15.45;;;8.68;;
40945;SDS011;55635;50.264;11.918;2024-02-26T01:48:04;17.08;;;9.63;;
40945;SDS011;55635;50.264;11.918;2024-02-26T01:50:46;13.40;;;8.60;;
40945;SDS011;55635;50.264;11.918;2024-02-26T01:53:27;20.98;;;9.68;;
40945;SDS011;55635;50.264;11.918;2024-02-26T01:56:08;12.95;;;8.82;;
40945;SDS011;55635;50.264;11.918;2024-02-26T01:58:49;17.67;;;10.48;;
40945;SDS011;55635;50.264;11.918;2024-02-26T02:01:31;16.63;;;9.68;;
40945;SDS011;55635;50.264;11.918;2024-02-26T02:04:13;18.50;;;10.85;;
40945;SDS011;55635;50.264;11.918;2024-02-26T02:06:55;18.50;;;11.05;;
40945;SDS011;55635;50.264;11.918;2024-02-26T02:09:38;21.10;;;10.85;;
40945;SDS011;55635;50.264;11.918;2024-02-26T02:12:19;21.70;;;12.07;;
40945;SDS011;55635;50.264;11.918;2024-02-26T02:15:01;19.63;;;11.23;;
40945;SDS011;55635;50.264;11.918;2024-02-26T02:17:42;22.15;;;11.30;;
40945;SDS011;55635;50.264;11.918;2024-02-26T02:20:33;24.10;;;11.93;;
40945;SDS011;55635;50.264;11.918;2024-02-26T02:23:15;19.00;;;11.20;;
40945;SDS011;55635;50.264;11.918;2024-02-26T02:25:56;21.10;;;11.50;;
40945;SDS011;55635;50.264;11.918;2024-02-26T02:28:38;20.90;;;11.50;;
40945;SDS011;55635;50.264;11.918;2024-02-26T02:31:21;18.15;;;10.05;;
40945;SDS011;55635;50.264;11.918;2024-02-26T02:34:02;19.38;;;10.52;;
40945;SDS011;55635;50.264;11.918;2024-02-26T02:36:53;26.75;;;12.15;;
40945;SDS011;55635;50.264;11.918;2024-02-26T02:39:34;23.08;;;11.90;;
40945;SDS011;55635;50.264;11.918;2024-02-26T02:42:15;26.48;;;12.93;;
40945;SDS011;55635;50.264;11.918;2024-02-26T02:44:56;25.88;;;12.45;;
40945;SDS011;55635;50.264;11.918;2024-02-26T02:47:37;22.52;;;11.75;;
40945;SDS011;55635;50.264;11.918;2024-02-26T02:50:18;22.40;;;12.27;;
40945;SDS011;55635;50.264;11.918;2024-02-26T02:53:09;30.58;;;15.55;;
40945;SDS011;55635;50.264;11.918;2024-02-26T02:55:50;30.77;;;15.73;;
40945;SDS011;55635;50.264;11.918;2024-02-26T02:58:31;38.15;;;17.23;;
40945;SDS011;55635;50.264;11.918;2024-02-26T03:01:13;32.85;;;16.80;;
40945;SDS011;55635;50.264;11.918;2024-02-26T03:03:54;34.05;;;17.13;;
40945;SDS011;55635;50.264;11.918;2024-02-26T03:06:36;37.40;;;18.65;;
40945;SDS011;55635;50.264;11.918;2024-02-26T03:09:17;40.38;;;17.38;;
40945;SDS011;55635;50.264;11.918;2024-02-26T03:11:58;36.25;;;17.55;;
40945;SDS011;55635;50.264;11.918;2024-02-26T03:14:39;39.60;;;18.20;;
40945;SDS011;55635;50.264;11.918;2024-02-26T03:17:20;36.67;;;18.08;;
40945;SDS011;55635;50.264;11.918;2024-02-26T03:20:01;45.95;;;20.73;;
40945;SDS011;55635;50.264;11.918;2024-02-26T03:22:45;46.22;;;20.77;;
40945;SDS011;55635;50.264;11.918;2024-02-26T03:25:26;52.28;;;21.00;;
40945;SDS011;55635;50.264;11.918;2024-02-26T03:28:07;51.55;;;21.58;;
40945;SDS011;55635;50.264;11.918;2024-02-26T03:30:48;57.90;;;23.13;;
40945;SDS011;55635;50.264;11.918;2024-02-26T03:33:29;66.13;;;26.13;;
40945;SDS011;55635;50.264;11.918;2024-02-26T03:36:10;67.15;;;24.67;;
40945;SDS011;55635;50.264;11.918;2024-02-26T03:38:52;64.18;;;25.13;;
40945;SDS011;55635;50.264;11.918;2024-02-26T03:41:36;68.85;;;26.10;;
40945;SDS011;55635;50.264;11.918;2024-02-26T03:44:17;78.57;;;26.60;;
40945;SDS011;55635;50.264;11.918;2024-02-26T03:46:58;77.90;;;26.38;;
40945;SDS011;55635;50.264;11.918;2024-02-26T03:49:38;85.70;;;28.20;;
40945;SDS011;55635;50.264;11.918;2024-02-26T03:52:20;91.38;;;29.38;;
40945;SDS011;55635;50.264;11.918;2024-02-26T03:55:01;82.50;;;27.00;;
40945;SDS011;55635;50.264;11.918;2024-02-26T03:57:42;104.75;;;30.00;;
40945;SDS011;55635;50.264;11.918;2024-02-26T04:00:23;101.03;;;29.80;;
40945;SDS011;55635;50.264;11.918;2024-02-26T04:03:05;96.53;;;28.05;;
40945;SDS011;55635;50.264;11.918;2024-02-26T04:05:46;88.68;;;26.70;;
40945;SDS011;55635;50.264;11.918;2024-02-26T04:08:27;90.50;;;27.27;;
40945;SDS011;55635;50.264;11.918;2024-02-26T04:11:08;76.70;;;24.33;;
40945;SDS011;55635;50.264;11.918;2024-02-26T04:13:49;61.50;;;23.30;;
40945;SDS011;55635;50.264;11.918;2024-02-26T04:16:32;57.83;;;22.92;;
40945;SDS011;55635;50.264;11.918;2024-02-26T04:19:13;55.13;;;23.60;;
40945;SDS011;55635;50.264;11.918;2024-02-26T04:21:54;43.65;;;20.42;;
40945;SDS011;55635;50.264;11.918;2024-02-26T04:24:36;45.30;;;19.98;;
40945;SDS011;55635;50.264;11.918;2024-02-26T04:27:17;44.38;;;19.70;;
40945;SDS011;55635;50.264;11.918;2024-02-26T04:29:58;42.45;;;18.48;;
40945;SDS011;55635;50.264;11.918;2024-02-26T04:32:39;42.42;;;18.02;;
40945;SDS011;55635;50.264;11.918;2024-02-26T04:35:20;35.05;;;17.83;;
40945;SDS011;55635;50.264;11.918;2024-02-26T04:38:01;34.58;;;16.42;;
40945;SDS011;55635;50.264;11.918;2024-02-26T04:40:41;34.10;;;16.75;;
40945;SDS011;55635;50.264;11.918;2024-02-26T04:43:23;31.77;;;17.15;;
40945;SDS011;55635;50.264;11.918;2024-02-26T04:46:04;33.63;;;16.23;;
40945;SDS011;55635;50.264;11.918;2024-02-26T04:48:45;34.20;;;16.90;;
40945;SDS011;55635;50.264;11.918;2024-02-26T04:51:26;34.83;;;17.42;;
40945;SDS011;55635;50.264;11.918;2024-02-26T04:54:07;37.80;;;17.75;;
40945;SDS011;55635;50.264;11.918;2024-02-26T04:56:49;40.78;;;18.13;;
40945;SDS011;55635;50.264;11.918;2024-02-26T04:59:30;33.00;;;16.80;;
40945;SDS011;55635;50.264;11.918;2024-02-26T05:02:11;38.35;;;18.27;;
40945;SDS011;55635;50.264;11.918;2024-02-26T05:04:53;35.72;;;16.35;;
40945;SDS011;55635;50.264;11.918;2024-02-26T05:07:34;39.03;;;18.33;;
40945;SDS011;55635;50.264;11.918;2024-02-26T05:10:22;42.17;;;17.95;;
40945;SDS011;55635;50.264;11.918;2024-02-26T05:13:03;42.85;;;18.27;;
40945;SDS011;55635;50.264;11.918;2024-02-26T05:15:44;46.63;;;18.45;;
40945;SDS011;55635;50.264;11.918;2024-02-26T05:18:29;45.38;;;20.65;;
40945;SDS011;55635;50.264;11.918;2024-02-26T05:21:10;45.95;;;21.00;;
40945;SDS011;55635;50.264;11.918;2024-02-26T05:23:50;42.40;;;19.23;;
40945;SDS011;55635;50.264;11.918;2024-02-26T05:26:32;45.53;;;20.30;;
40945;SDS011;55635;50.264;11.918;2024-02-26T05:29:13;46.35;;;20.48;;
40945;SDS011;55635;50.264;11.918;2024-02-26T05:31:54;43.13;;;19.13;;
40945;SDS011;55635;50.264;11.918;2024-02-26T05:34:35;43.88;;;19.10;;
40945;SDS011;55635;50.264;11.918;2024-02-26T05:37:17;46.45;;;20.95;;
40945;SDS011;55635;50.264;11.918;2024-02-26T05:39:58;42.80;;;20.48;;
40945;SDS011;55635;50.264;11.918;2024-02-26T05:42:40;47.35;;;19.42;;
40945;SDS011;55635;50.264;11.918;2024-02-26T05:45:21;47.70;;;20.48;;
40945;SDS011;55635;50.264;11.918;2024-02-26T05:48:02;44.85;;;19.15;;
40945;SDS011;55635;50.264;11.918;2024-02-26T05:50:43;44.05;;;19.23;;
40945;SDS011;55635;50.264;11.918;2024-02-26T05:53:25;50.72;;;19.30;;
40945;SDS011;55635;50.264;11.918;2024-02-26T05:56:06;41.05;;;18.20;;
40945;SDS011;55635;50.264;11.918;2024-02-26T05:58:47;39.08;;;17.20;;
40945;SDS011;55635;50.264;11.918;2024-02-26T06:01:29;39.35;;;17.33;;
40945;SDS011;55635;50.264;11.918;2024-02-26T06:04:10;41.20;;;17.65;;
40945;SDS011;55635;50.264;11.918;2024-02-26T06:06:52;39.33;;;19.02;;
40945;SDS011;55635;50.264;11.918;2024-02-26T06:09:33;39.13;;;17.75;;
40945;SDS011;55635;50.264;11.918;2024-02-26T06:12:15;40.88;;;18.98;;
40945;SDS011;55635;50.264;11.918;2024-02-26T06:14:56;44.28;;;18.23;;
40945;SDS011;55635;50.264;11.918;2024-02-26T06:17:41;45.03;;;19.30;;
40945;SDS011;55635;50.264;11.918;2024-02-26T06:20:22;38.92;;;19.27;;
40945;SDS011;55635;50.264;11.918;2024-02-26T06:23:03;41.42;;;17.95;;
40945;SDS011;55635;50.264;11.918;2024-02-26T06:25:44;41.35;;;19.27;;
40945;SDS011;55635;50.264;11.918;2024-02-26T06:28:28;41.75;;;18.88;;
40945;SDS011;55635;50.264;11.918;2024-02-26T06:31:10;37.25;;;17.63;;
40945;SDS011;55635;50.264;11.918;2024-02-26T06:33:51;35.38;;;17.55;;
40945;SDS011;55635;50.264;11.918;2024-02-26T06:36:32;39.08;;;19.52;;
40945;SDS011;55635;50.264;11.918;2024-02-26T06:39:14;37.10;;;17.20;;
40945;SDS011;55635;50.264;11.918;2024-02-26T06:41:56;35.20;;;17.80;;
40945;SDS011;55635;50.264;11.918;2024-02-26T06:44:40;34.92;;;16.75;;
40945;SDS011;55635;50.264;11.918;2024-02-26T06:47:22;28.33;;;15.07;;
40945;SDS011;55635;50.264;11.918;2024-02-26T06:50:03;30.48;;;16.10;;
40945;SDS011;55635;50.264;11.918;2024-02-26T06:52:44;30.73;;;16.85;;
40945;SDS011;55635;50.264;11.918;2024-02-26T06:55:26;32.33;;;16.35;;
40945;SDS011;55635;50.264;11.918;2024-02-26T06:58:08;31.08;;;16.63;;
40945;SDS011;55635;50.264;11.918;2024-02-26T07:00:49;31.67;;;16.90;;
40945;SDS011;55635;50.264;11.918;2024-02-26T07:03:30;29.30;;;16.38;;
40945;SDS011;55635;50.264;11.918;2024-02-26T07:06:13;25.08;;;14.88;;
40945;SDS011;55635;50.264;11.918;2024-02-26T07:08:54;27.75;;;15.23;;
40945;SDS011;55635;50.264;11.918;2024-02-26T07:11:36;26.33;;;15.13;;
40945;SDS011;55635;50.264;11.918;2024-02-26T07:14:16;27.40;;;13.63;;
40945;SDS011;55635;50.264;11.918;2024-02-26T07:16:58;27.13;;;15.35;;
40945;SDS011;55635;50.264;11.918;2024-02-26T07:19:38;27.65;;;14.70;;
40945;SDS011;55635;50.264;11.918;2024-02-26T07:22:20;26.20;;;15.27;;
40945;SDS011;55635;50.264;11.918;2024-02-26T07:25:01;28.50;;;16.63;;
40945;SDS011;55635;50.264;11.918;2024-02-26T07:27:42;26.65;;;15.15;;
40945;SDS011;55635;50.264;11.918;2024-02-26T07:30:23;26.52;;;15.95;;
40945;SDS011;55635;50.264;11.918;2024-02-26T07:33:04;25.02;;;15.05;;
40945;SDS011;55635;50.264;11.918;2024-02-26T07:35:47;29.10;;;16.98;;
40945;SDS011;55635;50.264;11.918;2024-02-26T07:38:28;27.85;;;16.45;;
40945;SDS011;55635;50.264;11.918;2024-02-26T07:41:10;26.85;;;15.70;;
40945;SDS011;55635;50.264;11.918;2024-02-26T07:43:52;25.90;;;15.68;;
40945;SDS011;55635;50.264;11.918;2024-02-26T07:46:33;25.88;;;15.07;;
40945;SDS011;55635;50.264;11.918;2024-02-26T07:49:14;26.80;;;15.13;;
40945;SDS011;55635;50.264;11.918;2024-02-26T07:51:55;28.70;;;16.40;;
40945;SDS011;55635;50.264;11.918;2024-02-26T07:54:38;30.15;;;15.25;;
40945;SDS011;55635;50.264;11.918;2024-02-26T07:57:19;27.58;;;16.55;;
40945;SDS011;55635;50.264;11.918;2024-02-26T08:00:02;26.55;;;15.95;;
40945;SDS011;55635;50.264;11.918;2024-02-26T08:02:44;28.90;;;15.00;;
40945;SDS011;55635;50.264;11.918;2024-02-26T08:05:27;26.45;;;14.93;;
40945;SDS011;55635;50.264;11.918;2024-02-26T08:08:08;27.33;;;15.05;;
40945;SDS011;55635;50.264;11.918;2024-02-26T08:10:49;25.23;;;14.77;;
40945;SDS011;55635;50.264;11.918;2024-02-26T08:13:30;26.35;;;15.23;;
40945;SDS011;55635;50.264;11.918;2024-02-26T08:16:11;24.90;;;15.00;;
40945;SDS011;55635;50.264;11.918;2024-02-26T08:18:52;26.15;;;14.68;;
40945;SDS011;55635;50.264;11.918;2024-02-26T08:21:33;22.10;;;13.73;;
40945;SDS011;55635;50.264;11.918;2024-02-26T08:24:17;27.73;;;15.60;;
40945;SDS011;55635;50.264;11.918;2024-02-26T08:26:58;23.65;;;13.73;;
40945;SDS011;55635;50.264;11.918;2024-02-26T08:29:39;26.23;;;14.55;;
40945;SDS011;55635;50.264;11.918;2024-02-26T08:32:20;21.98;;;13.93;;
40945;SDS011;55635;50.264;11.918;2024-02-26T08:35:01;25.42;;;14.60;;
40945;SDS011;55635;50.264;11.918;2024-02-26T08:37:45;25.95;;;14.35;;
40945;SDS011;55635;50.264;11.918;2024-02-26T08:40:27;25.35;;;14.13;;
40945;SDS011;55635;50.264;11.918;2024-02-26T08:43:08;22.60;;;13.25;;
40945;SDS011;55635;50.264;11.918;2024-02-26T08:45:49;21.08;;;13.00;;
40945;SDS011;55635;50.264;11.918;2024-02-26T08:48:31;23.10;;;13.55;;
40945;SDS011;55635;50.264;11.918;2024-02-26T08:51:12;27.63;;;16.27;;
40945;SDS011;55635;50.264;11.918;2024-02-26T08:53:53;23.23;;;13.75;;
40945;SDS011;55635;50.264;11.918;2024-02-26T08:56:34;27.20;;;13.95;;
40945;SDS011;55635;50.264;11.918;2024-02-26T08:59:16;19.88;;;12.65;;
40945;SDS011;55635;50.264;11.918;2024-02-26T09:01:59;23.15;;;13.95;;
40945;SDS011;55635;50.264;11.918;2024-02-26T09:04:40;22.02;;;13.48;;
40945;SDS011;55635;50.264;11.918;2024-02-26T09:07:21;20.65;;;12.70;;
40945;SDS011;55635;50.264;11.918;2024-02-26T09:10:02;22.38;;;12.45;;
40945;SDS011;55635;50.264;11.918;2024-02-26T09:12:45;20.40;;;12.15;;
40945;SDS011;55635;50.264;11.918;2024-02-26T09:15:26;21.30;;;12.50;;
40945;SDS011;55635;50.264;11.918;2024-02-26T09:18:07;18.52;;;11.23;;
40945;SDS011;55635;50.264;11.918;2024-02-26T09:20:48;20.45;;;12.50;;
40945;SDS011;55635;50.264;11.918;2024-02-26T09:23:31;17.33;;;11.30;;
40945;SDS011;55635;50.264;11.918;2024-02-26T09:26:12;18.45;;;11.65;;
40945;SDS011;55635;50.264;11.918;2024-02-26T09:28:54;17.92;;;11.20;;
40945;SDS011;55635;50.264;11.918;2024-02-26T09:31:35;14.32;;;9.95;;
40945;SDS011;55635;50.264;11.918;2024-02-26T09:34:16;15.32;;;10.65;;
40945;SDS011;55635;50.264;11.918;2024-02-26T09:36:56;16.48;;;10.65;;
40945;SDS011;55635;50.264;11.918;2024-02-26T09:39:38;15.60;;;10.05;;
40945;SDS011;55635;50.264;11.918;2024-02-26T09:42:19;16.48;;;10.73;;
40945;SDS011;55635;50.264;11.918;2024-02-26T09:45:00;16.38;;;10.13;;
40945;SDS011;55635;50.264;11.918;2024-02-26T09:47:45;14.00;;;9.50;;
40945;SDS011;55635;50.264;11.918;2024-02-26T09:50:29;16.30;;;10.65;;
40945;SDS011;55635;50.264;11.918;2024-02-26T09:53:11;16.77;;;10.15;;
40945;SDS011;55635;50.264;11.918;2024-02-26T09:55:54;14.45;;;9.10;;
40945;SDS011;55635;50.264;11.918;2024-02-26T09:58:35;13.70;;;9.60;;
40945;SDS011;55635;50.264;11.918;2024-02-26T10:01:18;15.93;;;9.15;;
40945;SDS011;55635;50.264;11.918;2024-02-26T10:04:00;20.00;;;10.85;;
40945;SDS011;55635;50.264;11.918;2024-02-26T10:06:43;18.02;;;9.48;;
40945;SDS011;55635;50.264;11.918;2024-02-26T10:09:26;16.17;;;9.85;;
40945;SDS011;55635;50.264;11.918;2024-02-26T10:12:08;15.52;;;9.43;;
40945;SDS011;55635;50.264;11.918;2024-02-26T10:14:51;16.25;;;9.85;;
40945;SDS011;55635;50.264;11.918;2024-02-26T10:17:33;19.23;;;9.63;;
40945;SDS011;55635;50.264;11.918;2024-02-26T10:20:15;15.95;;;10.27;;
40945;SDS011;55635;50.264;11.918;2024-02-26T10:22:58;15.15;;;9.82;;
40945;SDS011;55635;50.264;11.918;2024-02-26T10:25:52;13.40;;;9.15;;
40945;SDS011;55635;50.264;11.918;2024-02-26T10:28:34;16.67;;;9.23;;
40945;SDS011;55635;50.264;11.918;2024-02-26T10:31:16;12.10;;;8.15;;
40945;SDS011;55635;50.264;11.918;2024-02-26T10:33:57;21.85;;;8.93;;
40945;SDS011;55635;50.264;11.918;2024-02-26T10:36:39;13.35;;;8.48;;
40945;SDS011;55635;50.264;11.918;2024-02-26T10:39:21;12.60;;;8.30;;
40945;SDS011;55635;50.264;11.918;2024-02-26T10:42:02;19.50;;;9.38;;
40945;SDS011;55635;50.264;11.918;2024-02-26T10:44:49;12.63;;;7.85;;
40945;SDS011;55635;50.264;11.918;2024-02-26T10:47:30;11.63;;;8.27;;
40945;SDS011;55635;50.264;11.918;2024-02-26T10:50:13;15.02;;;7.47;;
40945;SDS011;55635;50.264;11.918;2024-02-26T10:52:58;10.95;;;7.35;;
40945;SDS011;55635;50.264;11.918;2024-02-26T10:55:40;13.45;;;7.20;;
40945;SDS011;55635;50.264;11.918;2024-02-26T10:58:25;13.55;;;7.97;;
40945;SDS011;55635;50.264;11.918;2024-02-26T11:01:07;11.75;;;7.93;;
40945;SDS011;55635;50.264;11.918;2024-02-26T11:03:50;12.90;;;7.82;;
40945;SDS011;55635;50.264;11.918;2024-02-26T11:06:34;11.57;;;7.03;;
40945;SDS011;55635;50.264;11.918;2024-02-26T11:09:15;11.52;;;7.00;;
40945;SDS011;55635;50.264;11.918;2024-02-26T11:11:57;9.48;;;7.30;;
40945;SDS011;55635;50.264;11.918;2024-02-26T11:14:39;12.63;;;8.00;;
40945;SDS011;55635;50.264;11.918;2024-02-26T11:17:27;12.18;;;6.95;;
40945;SDS011;55635;50.264;11.918;2024-02-26T11:20:11;10.30;;;6.97;;
40945;SDS011;55635;50.264;11.918;2024-02-26T11:22:54;10.23;;;6.82;;
40945;SDS011;55635;50.264;11.918;2024-02-26T11:25:35;12.95;;;7.93;;
40945;SDS011;55635;50.264;11.918;2024-02-26T11:28:17;12.85;;;7.85;;
40945;SDS011;55635;50.264;11.918;2024-02-26T11:31:01;10.88;;;6.97;;
40945;SDS011;55635;50.264;11.918;2024-02-26T11:33:44;11.98;;;7.40;;
40945;SDS011;55635;50.264;11.918;2024-02-26T11:36:26;12.32;;;7.13;;
40945;SDS011;55635;50.264;11.918;2024-02-26T11:39:07;11.30;;;6.50;;
40945;SDS011;55635;50.264;11.918;2024-02-26T11:41:49;9.65;;;7.03;;
40945;SDS011;55635;50.264;11.918;2024-02-26T11:44:30;9.35;;;6.63;;
40945;SDS011;55635;50.264;11.918;2024-02-26T11:49:53;11.00;;;7.43;;
40945;SDS011;55635;50.264;11.918;2024-02-26T11:52:34;12.65;;;7.63;;
40945;SDS011;55635;50.264;11.918;2024-02-26T11:55:15;11.95;;;8.65;;
40945;SDS011;55635;50.264;11.918;2024-02-26T11:58:12;14.55;;;8.52;;
40945;SDS011;55635;50.264;11.918;2024-02-26T12:00:55;14.60;;;8.27;;
40945;SDS011;55635;50.264;11.918;2024-02-26T12:03:38;13.68;;;7.95;;
40945;SDS011;55635;50.264;11.918;2024-02-26T12:06:19;11.75;;;7.30;;
40945;SDS011;55635;50.264;11.918;2024-02-26T12:09:01;10.02;;;7.10;;
40945;SDS011;55635;50.264;11.918;2024-02-26T12:11:42;11.95;;;7.47;;
40945;SDS011;55635;50.264;11.918;2024-02-26T12:14:27;11.45;;;7.15;;
40945;SDS011;55635;50.264;11.918;2024-02-26T12:17:18;11.48;;;7.20;;
40945;SDS011;55635;50.264;11.918;2024-02-26T12:20:08;12.52;;;8.48;;
40945;SDS011;55635;50.264;11.918;2024-02-26T12:22:51;12.60;;;8.20;;
40945;SDS011;55635;50.264;11.918;2024-02-26T12:25:35;9.88;;;7.25;;
40945;SDS011;55635;50.264;11.918;2024-02-26T12:28:16;12.60;;;7.80;;
40945;SDS011;55635;50.264;11.918;2024-02-26T12:30:57;11.65;;;7.85;;
40945;SDS011;55635;50.264;11.918;2024-02-26T12:33:39;11.32;;;8.07;;
40945;SDS011;55635;50.264;11.918;2024-02-26T12:36:21;12.32;;;7.47;;
40945;SDS011;55635;50.264;11.918;2024-02-26T12:39:03;11.80;;;8.23;;
40945;SDS011;55635;50.264;11.918;2024-02-26T12:41:46;11.45;;;7.68;;
40945;SDS011;55635;50.264;11.918;2024-02-26T12:44:29;12.05;;;7.38;;
40945;SDS011;55635;50.264;11.918;2024-02-26T12:47:11;14.63;;;7.28;;
40945;SDS011;55635;50.264;11.918;2024-02-26T12:49:56;11.85;;;7.55;;
40945;SDS011;55635;50.264;11.918;2024-02-26T12:52:43;10.45;;;7.10;;
40945;SDS011;55635;50.264;11.918;2024-02-26T12:55:26;14.18;;;8.18;;
40945;SDS011;55635;50.264;11.918;2024-02-26T12:58:07;10.85;;;7.55;;
40945;SDS011;55635;50.264;11.918;2024-02-26T13:00:48;8.77;;;6.57;;
40945;SDS011;55635;50.264;11.918;2024-02-26T13:03:32;8.93;;;5.88;;
40945;SDS011;55635;50.264;11.918;2024-02-26T13:06:17;7.20;;;5.80;;
40945;SDS011;55635;50.264;11.918;2024-02-26T13:08:59;11.82;;;7.10;;
40945;SDS011;55635;50.264;11.918;2024-02-26T13:11:41;9.77;;;6.50;;
40945;SDS011;55635;50.264;11.918;2024-02-26T13:14:24;7.70;;;5.80;;
40945;SDS011;55635;50.264;11.918;2024-02-26T13:17:05;7.95;;;5.63;;
40945;SDS011;55635;50.264;11.918;2024-02-26T13:19:49;6.72;;;5.13;;
40945;SDS011;55635;50.264;11.918;2024-02-26T13:22:30;9.77;;;6.15;;
40945;SDS011;55635;50.264;11.918;2024-02-26T13:25:14;11.57;;;6.13;;
40945;SDS011;55635;50.264;11.918;2024-02-26T13:28:19;11.00;;;7.90;;
40945;SDS011;55635;50.264;11.918;2024-02-26T13:31:00;10.57;;;7.30;;
40945;SDS011;55635;50.264;11.918;2024-02-26T13:33:43;10.25;;;7.53;;
40945;SDS011;55635;50.264;11.918;2024-02-26T13:36:27;12.20;;;6.47;;
40945;SDS011;55635;50.264;11.918;2024-02-26T13:39:08;9.60;;;6.38;;
40945;SDS011;55635;50.264;11.918;2024-02-26T13:41:53;10.70;;;6.82;;
40945;SDS011;55635;50.264;11.918;2024-02-26T13:44:35;13.60;;;7.65;;
40945;SDS011;55635;50.264;11.918;2024-02-26T13:47:19;12.32;;;8.05;;
40945;SDS011;55635;50.264;11.918;2024-02-26T13:50:01;9.70;;;7.38;;
40945;SDS011;55635;50.264;11.918;2024-02-26T13:52:42;10.50;;;7.45;;
40945;SDS011;55635;50.264;11.918;2024-02-26T13:55:27;10.65;;;7.40;;
40945;SDS011;55635;50.264;11.918;2024-02-26T13:58:11;13.52;;;7.60;;
40945;SDS011;55635;50.264;11.918;2024-02-26T14:00:56;12.82;;;7.55;;
40945;SDS011;55635;50.264;11.918;2024-02-26T14:03:39;9.90;;;7.28;;
40945;SDS011;55635;50.264;11.918;2024-02-26T14:06:20;14.07;;;7.97;;
40945;SDS011;55635;50.264;11.918;2024-02-26T14:09:01;12.10;;;7.85;;
40945;SDS011;55635;50.264;11.918;2024-02-26T14:11:47;10.73;;;7.22;;
40945;SDS011;55635;50.264;11.918;2024-02-26T14:14:28;12.35;;;8.38;;
40945;SDS011;55635;50.264;11.918;2024-02-26T14:17:12;11.90;;;8.02;;
40945;SDS011;55635;50.264;11.918;2024-02-26T14:19:54;9.85;;;7.70;;
40945;SDS011;55635;50.264;11.918;2024-02-26T14:22:35;10.35;;;6.88;;
40945;SDS011;55635;50.264;11.918;2024-02-26T14:25:16;9.45;;;7.15;;
40945;SDS011;55635;50.264;11.918;2024-02-26T14:27:57;8.63;;;7.00;;
40945;SDS011;55635;50.264;11.918;2024-02-26T14:30:38;9.68;;;6.78;;
40945;SDS011;55635;50.264;11.918;2024-02-26T14:33:19;8.40;;;6.43;;
40945;SDS011;55635;50.264;11.918;2024-02-26T14:36:00;9.15;;;6.38;;
40945;SDS011;55635;50.264;11.918;2024-02-26T14:38:42;12.00;;;6.22;;
40945;SDS011;55635;50.264;11.918;2024-02-26T14:41:23;9.57;;;6.57;;
40945;SDS011;55635;50.264;11.918;2024-02-26T14:44:03;8.85;;;6.22;;
40945;SDS011;55635;50.264;11.918;2024-02-26T14:46:45;7.57;;;5.72;;
40945;SDS011;55635;50.264;11.918;2024-02-26T14:49:25;12.80;;;7.50;;
40945;SDS011;55635;50.264;11.918;2024-02-26T14:52:07;14.98;;;7.72;;
40945;SDS011;55635;50.264;11.918;2024-02-26T14:54:48;12.07;;;7.18;;
40945;SDS011;55635;50.264;11.918;2024-02-26T14:57:31;9.55;;;6.60;;
40945;SDS011;55635;50.264;11.918;2024-02-26T15:00:13;10.68;;;6.78;;
40945;SDS011;55635;50.264;11.918;2024-02-26T15:02:54;13.00;;;8.02;;
40945;SDS011;55635;50.264;11.918;2024-02-26T15:05:35;11.15;;;6.95;;
40945;SDS011;55635;50.264;11.918;2024-02-26T15:08:16;9.27;;;7.10;;
40945;SDS011;55635;50.264;11.918;2024-02-26T15:10:57;11.93;;;7.43;;
40945;SDS011;55635;50.264;11.918;2024-02-26T15:13:38;9.50;;;7.10;;
40945;SDS011;55635;50.264;11.918;2024-02-26T15:16:20;11.10;;;7.10;;
40945;SDS011;55635;50.264;11.918;2024-02-26T15:19:01;11.48;;;6.78;;
40945;SDS011;55635;50.264;11.918;2024-02-26T15:21:43;10.18;;;6.57;;
40945;SDS011;55635;50.264;11.918;2024-02-26T15:24:25;9.63;;;7.03;;
40945;SDS011;55635;50.264;11.918;2024-02-26T15:27:07;13.88;;;7.80;;
40945;SDS011;55635;50.264;11.918;2024-02-26T15:29:51;13.00;;;7.80;;
40945;SDS011;55635;50.264;11.918;2024-02-26T15:32:38;13.57;;;8.25;;
40945;SDS011;55635;50.264;11.918;2024-02-26T15:35:19;10.02;;;6.93;;
40945;SDS011;55635;50.264;11.918;2024-02-26T15:38:00;13.30;;;7.85;;
40945;SDS011;55635;50.264;11.918;2024-02-26T15:40:41;11.80;;;7.70;;
40945;SDS011;55635;50.264;11.918;2024-02-26T15:43:22;12.20;;;8.07;;